PWSweather.com
Personal Weather Stations
Station Observations
KVAGLENALL
West Henrico, Glen Allen, VA 23060-6503

West HenricoGlen Allen, VA 23060-6503

Lat: 37.6554, Lon: -77.5693

Elevation: 273

Station Type: Davis Vantage Pro II

www.glenallenweather.com

High Low Average
Temperature 42.9°F6.1°C 31.6°F-0.2°C 38.5°F3.6°C
Dew Point 37.6°F3.1°C 27.0°F-2.8°C 32.8°F0.4°C
Winds 11.0 mph 17.7 kmh Calm Calm 3.0 mph SE4.8 kmh SE
Wind Gusts 14.1 mph22.7 kmh -- 5.0 mph8.0 kmh
Humidity 97% 62% 80%
Pressure 30.38 in1028.8 mb 30.07 in1018.3 mb -
Precipitation 0.00 in0.0 mm - -
Hour Temp Dew Point Humidity Winds Wind Gusts Pressure Precip Precip Rate Daily Precip Total
12:00 AM 42.2°F5.7°C 33.5°F0.8°C 71% 5.0 mph NNE8.0 kmh NNE 9.1 mph14.6 kmh 30.23 in1023.7 mb 0.00 in0.0 mm 0.00 in0.0 mm 0.00 in0.0 mm
12:15 AM 41.5°F5.3°C 32.8°F0.4°C 71% 2.0 mph NNE3.2 kmh NNE 7.1 mph11.4 kmh 30.24 in1024.0 mb 0.00 in0.0 mm 0.00 in0.0 mm 0.00 in0.0 mm
12:30 AM 41.0°F5.0°C 32.7°F0.4°C 72% 9.0 mph N14.5 kmh N 11.1 mph17.9 kmh 30.24 in1024.0 mb 0.00 in0.0 mm 0.00 in0.0 mm 0.00 in0.0 mm
12:45 AM 40.7°F4.8°C 32.4°F0.2°C 72% 5.0 mph NE8.0 kmh NE 7.1 mph11.4 kmh 30.25 in1024.4 mb 0.00 in0.0 mm 0.00 in0.0 mm 0.00 in0.0 mm
01:00 AM 40.1°F4.5°C 32.2°F0.1°C 73% 9.0 mph NE14.5 kmh NE 9.1 mph14.6 kmh 30.25 in1024.4 mb 0.00 in0.0 mm 0.00 in0.0 mm 0.00 in0.0 mm
01:15 AM 39.9°F4.4°C 31.6°F-0.2°C 72% 5.0 mph NNE8.0 kmh NNE 11.1 mph17.9 kmh 30.25 in1024.4 mb 0.00 in0.0 mm 0.00 in0.0 mm 0.00 in0.0 mm
01:30 AM 39.4°F4.1°C 31.5°F-0.3°C 73% 11.0 mph NE17.7 kmh NE 12.1 mph19.5 kmh 30.27 in1025.1 mb 0.00 in0.0 mm 0.00 in0.0 mm 0.00 in0.0 mm
01:45 AM 39.3°F4.1°C 31.4°F-0.3°C 73% 5.0 mph NNE8.0 kmh NNE 10.1 mph16.3 kmh 30.27 in1025.1 mb 0.00 in0.0 mm 0.00 in0.0 mm 0.00 in0.0 mm
02:00 AM 39.0°F3.9°C 30.8°F-0.7°C 72% 3.0 mph NE4.8 kmh NE 10.1 mph16.3 kmh 30.27 in1025.1 mb 0.00 in0.0 mm 0.00 in0.0 mm 0.00 in0.0 mm
02:15 AM 38.6°F3.7°C 30.7°F-0.7°C 73% 3.0 mph N4.8 kmh N 7.1 mph11.4 kmh 30.27 in1025.1 mb 0.00 in0.0 mm 0.00 in0.0 mm 0.00 in0.0 mm
02:30 AM 38.0°F3.3°C 30.1°F-1.1°C 73% 1.0 mph NNE1.6 kmh NNE 4.0 mph6.4 kmh 30.27 in1025.1 mb 0.00 in0.0 mm 0.00 in0.0 mm 0.00 in0.0 mm
02:45 AM 37.8°F3.2°C 30.3°F-0.9°C 74% 5.0 mph N8.0 kmh N 11.1 mph17.9 kmh 30.26 in1024.7 mb 0.00 in0.0 mm 0.00 in0.0 mm 0.00 in0.0 mm
03:00 AM 37.7°F3.2°C 30.2°F-1.0°C 74% 5.0 mph NE8.0 kmh NE 9.1 mph14.6 kmh 30.26 in1024.7 mb 0.00 in0.0 mm 0.00 in0.0 mm 0.00 in0.0 mm
03:15 AM 37.5°F3.1°C 29.6°F-1.3°C 73% 4.0 mph NE6.4 kmh NE 8.1 mph13.0 kmh 30.26 in1024.7 mb 0.00 in0.0 mm 0.00 in0.0 mm 0.00 in0.0 mm
03:30 AM 37.0°F2.8°C 29.2°F-1.6°C 73% Calm Calm 3.0 mph4.8 kmh 30.28 in1025.4 mb 0.00 in0.0 mm 0.00 in0.0 mm 0.00 in0.0 mm
03:45 AM 36.0°F2.2°C 29.2°F-1.6°C 76% Calm Calm 1.0 mph1.6 kmh 30.29 in1025.7 mb 0.00 in0.0 mm 0.00 in0.0 mm 0.00 in0.0 mm
04:00 AM 35.5°F1.9°C 29.3°F-1.5°C 78% 2.0 mph NNE3.2 kmh NNE 4.0 mph6.4 kmh 30.30 in1026.1 mb 0.00 in0.0 mm 0.00 in0.0 mm 0.00 in0.0 mm
04:15 AM 35.1°F1.7°C 29.2°F-1.6°C 79% 2.0 mph NE3.2 kmh NE 4.0 mph6.4 kmh 30.30 in1026.1 mb 0.00 in0.0 mm 0.00 in0.0 mm 0.00 in0.0 mm
04:30 AM 35.0°F1.7°C 29.1°F-1.6°C 79% 4.0 mph NNE6.4 kmh NNE 4.0 mph6.4 kmh 30.30 in1026.1 mb 0.00 in0.0 mm 0.00 in0.0 mm 0.00 in0.0 mm
04:45 AM 35.0°F1.7°C 28.8°F-1.8°C 78% 2.0 mph ESE3.2 kmh ESE 8.1 mph13.0 kmh 30.31 in1026.4 mb 0.00 in0.0 mm 0.00 in0.0 mm 0.00 in0.0 mm
05:00 AM 34.9°F1.6°C 28.7°F-1.8°C 78% 3.0 mph NE4.8 kmh NE 4.0 mph6.4 kmh 30.31 in1026.4 mb 0.00 in0.0 mm 0.00 in0.0 mm 0.00 in0.0 mm
05:15 AM 34.9°F1.6°C 28.4°F-2.0°C 77% 2.0 mph NNE3.2 kmh NNE 3.0 mph4.8 kmh 30.32 in1026.8 mb 0.00 in0.0 mm 0.00 in0.0 mm 0.00 in0.0 mm
05:30 AM 34.6°F1.4°C 28.1°F-2.2°C 77% 5.0 mph NNE8.0 kmh NNE 6.1 mph9.8 kmh 30.32 in1026.8 mb 0.00 in0.0 mm 0.00 in0.0 mm 0.00 in0.0 mm
05:45 AM 34.4°F1.3°C 27.6°F-2.4°C 76% 1.0 mph ESE1.6 kmh ESE 6.1 mph9.8 kmh 30.34 in1027.4 mb 0.00 in0.0 mm 0.00 in0.0 mm 0.00 in0.0 mm
06:00 AM 33.9°F1.1°C 27.8°F-2.3°C 78% 3.0 mph NE4.8 kmh NE 3.0 mph4.8 kmh 30.34 in1027.4 mb 0.00 in0.0 mm 0.00 in0.0 mm 0.00 in0.0 mm
06:15 AM 33.4°F0.8°C 27.3°F-2.6°C 78% Calm Calm 5.1 mph8.2 kmh 30.34 in1027.4 mb 0.00 in0.0 mm 0.00 in0.0 mm 0.00 in0.0 mm
06:30 AM 33.0°F0.6°C 27.2°F-2.7°C 79% Calm Calm 2.0 mph3.2 kmh 30.35 in1027.8 mb 0.00 in0.0 mm 0.00 in0.0 mm 0.00 in0.0 mm
06:45 AM 32.3°F0.2°C 27.1°F-2.7°C 81% 3.0 mph ESE4.8 kmh ESE 3.0 mph4.8 kmh 30.34 in1027.4 mb 0.00 in0.0 mm 0.00 in0.0 mm 0.00 in0.0 mm
07:00 AM 31.9°F-0.1°C 27.0°F-2.8°C 82% 1.0 mph ENE1.6 kmh ENE 3.0 mph4.8 kmh 30.35 in1027.8 mb 0.00 in0.0 mm 0.00 in0.0 mm 0.00 in0.0 mm
07:15 AM 31.6°F-0.2°C 27.0°F-2.8°C 83% 2.0 mph NE3.2 kmh NE 2.0 mph3.2 kmh 30.36 in1028.1 mb 0.00 in0.0 mm 0.00 in0.0 mm 0.00 in0.0 mm
07:30 AM 32.1°F0.1°C 27.2°F-2.7°C 82% 2.0 mph SE3.2 kmh SE 7.1 mph11.4 kmh 30.36 in1028.1 mb 0.00 in0.0 mm 0.00 in0.0 mm 0.00 in0.0 mm
07:45 AM 33.1°F0.6°C 27.6°F-2.4°C 80% 2.0 mph ESE3.2 kmh ESE 5.1 mph8.2 kmh 30.36 in1028.1 mb 0.00 in0.0 mm 0.00 in0.0 mm 0.00 in0.0 mm
08:00 AM 34.2°F1.2°C 28.0°F-2.2°C 78% 2.0 mph NE3.2 kmh NE 7.1 mph11.4 kmh 30.38 in1028.8 mb 0.00 in0.0 mm 0.00 in0.0 mm 0.00 in0.0 mm
08:15 AM 36.9°F2.7°C 29.1°F-1.6°C 73% 2.0 mph ENE3.2 kmh ENE 9.1 mph14.6 kmh 30.37 in1028.4 mb 0.00 in0.0 mm 0.00 in0.0 mm 0.00 in0.0 mm
08:30 AM 38.2°F3.4°C 28.9°F-1.7°C 69% 10.0 mph E16.1 kmh E 10.1 mph16.3 kmh 30.37 in1028.4 mb 0.00 in0.0 mm 0.00 in0.0 mm 0.00 in0.0 mm
08:45 AM 38.5°F3.6°C 28.5°F-1.9°C 67% 5.0 mph E8.0 kmh E 11.1 mph17.9 kmh 30.38 in1028.8 mb 0.00 in0.0 mm 0.00 in0.0 mm 0.00 in0.0 mm
09:00 AM 39.6°F4.2°C 29.2°F-1.6°C 66% 5.0 mph E8.0 kmh E 10.1 mph16.3 kmh 30.38 in1028.8 mb 0.00 in0.0 mm 0.00 in0.0 mm 0.00 in0.0 mm
09:15 AM 39.6°F4.2°C 28.8°F-1.8°C 65% 5.0 mph E8.0 kmh E 10.1 mph16.3 kmh 30.37 in1028.4 mb 0.00 in0.0 mm 0.00 in0.0 mm 0.00 in0.0 mm
09:30 AM 39.6°F4.2°C 28.8°F-1.8°C 65% 11.0 mph ESE17.7 kmh ESE 14.1 mph22.7 kmh 30.36 in1028.1 mb 0.00 in0.0 mm 0.00 in0.0 mm 0.00 in0.0 mm
09:45 AM 39.6°F4.2°C 28.8°F-1.8°C 65% 10.0 mph E16.1 kmh E 12.1 mph19.5 kmh 30.36 in1028.1 mb 0.00 in0.0 mm 0.00 in0.0 mm 0.00 in0.0 mm
10:00 AM 39.6°F4.2°C 28.8°F-1.8°C 65% 2.0 mph E3.2 kmh E 4.0 mph6.4 kmh 30.36 in1028.1 mb 0.00 in0.0 mm 0.00 in0.0 mm 0.00 in0.0 mm
10:15 AM 41.2°F5.1°C 30.0°F-1.1°C 64% 1.0 mph SE1.6 kmh SE 8.1 mph13.0 kmh 30.37 in1028.4 mb 0.00 in0.0 mm 0.00 in0.0 mm 0.00 in0.0 mm
10:30 AM 42.3°F5.7°C 30.6°F-0.8°C 63% 2.0 mph S3.2 kmh S 8.1 mph13.0 kmh 30.35 in1027.8 mb 0.00 in0.0 mm 0.00 in0.0 mm 0.00 in0.0 mm
10:45 AM 42.3°F5.7°C 30.2°F-1.0°C 62% 7.0 mph ESE11.3 kmh ESE 9.1 mph14.6 kmh 30.33 in1027.1 mb 0.00 in0.0 mm 0.00 in0.0 mm 0.00 in0.0 mm
11:00 AM 42.0°F5.6°C 30.3°F-0.9°C 63% 3.0 mph E4.8 kmh E 6.1 mph9.8 kmh 30.33 in1027.1 mb 0.00 in0.0 mm 0.00 in0.0 mm 0.00 in0.0 mm
11:15 AM 42.5°F5.8°C 31.2°F-0.4°C 64% 4.0 mph ESE6.4 kmh ESE 10.1 mph16.3 kmh 30.33 in1027.1 mb 0.00 in0.0 mm 0.00 in0.0 mm 0.00 in0.0 mm
11:30 AM 42.6°F5.9°C 31.7°F-0.2°C 65% 10.0 mph ESE16.1 kmh ESE 10.1 mph16.3 kmh 30.33 in1027.1 mb 0.00 in0.0 mm 0.00 in0.0 mm 0.00 in0.0 mm
11:45 AM 42.4°F5.8°C 31.5°F-0.3°C 65% 7.0 mph ESE11.3 kmh ESE 11.1 mph17.9 kmh 30.31 in1026.4 mb 0.00 in0.0 mm 0.00 in0.0 mm 0.00 in0.0 mm
12:00 PM 42.5°F5.8°C 32.0°F0.0°C 66% 1.0 mph ESE1.6 kmh ESE 2.0 mph3.2 kmh 30.31 in1026.4 mb 0.00 in0.0 mm 0.00 in0.0 mm 0.00 in0.0 mm
12:15 PM 42.3°F5.7°C 31.8°F-0.1°C 66% 1.0 mph ESE1.6 kmh ESE 2.0 mph3.2 kmh 30.30 in1026.1 mb 0.00 in0.0 mm 0.00 in0.0 mm 0.00 in0.0 mm
12:30 PM 42.7°F5.9°C 32.9°F0.5°C 68% 4.0 mph SE6.4 kmh SE 7.1 mph11.4 kmh 30.28 in1025.4 mb 0.00 in0.0 mm 0.00 in0.0 mm 0.00 in0.0 mm
12:45 PM 42.9°F6.1°C 33.1°F0.6°C 68% 6.0 mph E9.7 kmh E 9.1 mph14.6 kmh 30.26 in1024.7 mb 0.00 in0.0 mm 0.00 in0.0 mm 0.00 in0.0 mm
01:00 PM 42.7°F5.9°C 32.9°F0.5°C 68% 9.0 mph SE14.5 kmh SE 11.1 mph17.9 kmh 30.24 in1024.0 mb 0.00 in0.0 mm 0.00 in0.0 mm 0.00 in0.0 mm
01:15 PM 42.6°F5.9°C 33.9°F1.1°C 71% 4.0 mph SSE6.4 kmh SSE 6.1 mph9.8 kmh 30.23 in1023.7 mb 0.00 in0.0 mm 0.00 in0.0 mm 0.00 in0.0 mm
01:30 PM 42.6°F5.9°C 33.9°F1.1°C 71% 2.0 mph S3.2 kmh S 8.1 mph13.0 kmh 30.23 in1023.7 mb 0.00 in0.0 mm 0.00 in0.0 mm 0.00 in0.0 mm
01:45 PM 42.3°F5.7°C 33.6°F0.9°C 71% 1.0 mph S1.6 kmh S 10.1 mph16.3 kmh 30.22 in1023.4 mb 0.00 in0.0 mm 0.00 in0.0 mm 0.00 in0.0 mm
02:00 PM 42.0°F5.6°C 34.3°F1.3°C 74% 3.0 mph E4.8 kmh E 9.1 mph14.6 kmh 30.20 in1022.7 mb 0.00 in0.0 mm 0.00 in0.0 mm 0.00 in0.0 mm
02:15 PM 41.8°F5.4°C 34.1°F1.2°C 74% Calm Calm 2.0 mph3.2 kmh 30.21 in1023.0 mb 0.00 in0.0 mm 0.00 in0.0 mm 0.00 in0.0 mm
02:30 PM 42.2°F5.7°C 33.8°F1.0°C 72% 2.0 mph SE3.2 kmh SE 10.1 mph16.3 kmh 30.20 in1022.7 mb 0.00 in0.0 mm 0.00 in0.0 mm 0.00 in0.0 mm
02:45 PM 42.2°F5.7°C 34.2°F1.2°C 73% 6.0 mph SE9.7 kmh SE 7.1 mph11.4 kmh 30.22 in1023.4 mb 0.00 in0.0 mm 0.00 in0.0 mm 0.00 in0.0 mm
03:00 PM 41.6°F5.3°C 34.6°F1.4°C 76% 6.0 mph ESE9.7 kmh ESE 7.1 mph11.4 kmh 30.18 in1022.0 mb 0.00 in0.0 mm 0.00 in0.0 mm 0.00 in0.0 mm
03:15 PM 41.1°F5.1°C 35.4°F1.9°C 80% 1.0 mph ESE1.6 kmh ESE 4.0 mph6.4 kmh 30.19 in1022.4 mb 0.00 in0.0 mm 0.00 in0.0 mm 0.00 in0.0 mm
03:30 PM 40.2°F4.6°C 36.4°F2.4°C 86% 4.0 mph E6.4 kmh E 4.0 mph6.4 kmh 30.19 in1022.4 mb 0.00 in0.0 mm 0.00 in0.0 mm 0.00 in0.0 mm
03:45 PM 39.4°F4.1°C 36.7°F2.6°C 90% 1.0 mph E1.6 kmh E 3.0 mph4.8 kmh 30.18 in1022.0 mb 0.03 in0.8 mm 0.12 in3.0 mm 0.03 in0.8 mm
04:00 PM 39.1°F3.9°C 37.0°F2.8°C 92% 1.0 mph ENE1.6 kmh ENE 3.0 mph4.8 kmh 30.17 in1021.7 mb 0.05 in1.3 mm 0.03 in0.8 mm 0.05 in1.3 mm
04:15 PM 39.0°F3.9°C 37.2°F2.9°C 93% 2.0 mph NE3.2 kmh NE 2.0 mph3.2 kmh 30.18 in1022.0 mb 0.06 in1.5 mm 0.04 in1.0 mm 0.06 in1.5 mm
04:30 PM 38.8°F3.8°C 37.2°F2.9°C 94% 1.0 mph E1.6 kmh E 1.0 mph1.6 kmh 30.18 in1022.0 mb 0.09 in2.3 mm 0.12 in3.0 mm 0.09 in2.3 mm
04:45 PM 38.6°F3.7°C 37.0°F2.8°C 94% 1.0 mph E1.6 kmh E 2.0 mph3.2 kmh 30.17 in1021.7 mb 0.14 in3.6 mm 0.20 in5.1 mm 0.14 in3.6 mm
05:00 PM 38.4°F3.6°C 37.1°F2.8°C 95% Calm Calm 1.0 mph1.6 kmh 30.19 in1022.4 mb 0.12 in3.0 mm 0.00 in0.0 mm 0.14 in3.6 mm
05:15 PM 38.5°F3.6°C 37.2°F2.9°C 95% 1.0 mph E1.6 kmh E 3.0 mph4.8 kmh 30.18 in1022.0 mb 0.12 in3.0 mm 0.00 in0.0 mm 0.14 in3.6 mm
05:30 PM 38.5°F3.6°C 37.2°F2.9°C 95% 1.0 mph NE1.6 kmh NE 1.0 mph1.6 kmh 30.18 in1022.0 mb 0.09 in2.3 mm 0.00 in0.0 mm 0.14 in3.6 mm
05:45 PM 38.4°F3.6°C 37.1°F2.8°C 95% Calm Calm -- 30.18 in1022.0 mb 0.10 in2.5 mm 0.04 in1.0 mm 0.15 in3.8 mm
06:00 PM 38.3°F3.5°C 37.3°F2.9°C 96% 1.0 mph NE1.6 kmh NE 2.0 mph3.2 kmh 30.17 in1021.7 mb 0.03 in0.8 mm 0.00 in0.0 mm 0.15 in3.8 mm
06:15 PM 38.1°F3.4°C 36.8°F2.7°C 95% Calm Calm -- 30.17 in1021.7 mb 0.03 in0.8 mm 0.00 in0.0 mm 0.15 in3.8 mm
06:30 PM 38.1°F3.4°C 37.1°F2.8°C 96% Calm Calm 2.0 mph3.2 kmh 30.17 in1021.7 mb 0.04 in1.0 mm 0.04 in1.0 mm 0.16 in4.1 mm
06:45 PM 38.1°F3.4°C 37.1°F2.8°C 96% 1.0 mph NNW1.6 kmh NNW 2.0 mph3.2 kmh 30.17 in1021.7 mb 0.06 in1.5 mm 0.08 in2.0 mm 0.18 in4.6 mm
07:00 PM 38.0°F3.3°C 37.0°F2.8°C 96% 1.0 mph NNW1.6 kmh NNW 3.0 mph4.8 kmh 30.16 in1021.3 mb 0.05 in1.3 mm 0.00 in0.0 mm 0.18 in4.6 mm
07:15 PM 38.0°F3.3°C 37.0°F2.8°C 96% Calm Calm -- 30.15 in1021.0 mb 0.07 in1.8 mm 0.08 in2.0 mm 0.20 in5.1 mm
07:30 PM 38.0°F3.3°C 37.0°F2.8°C 96% 1.0 mph N1.6 kmh N 2.0 mph3.2 kmh 30.15 in1021.0 mb 0.07 in1.8 mm 0.00 in0.0 mm 0.20 in5.1 mm
07:45 PM 37.9°F3.3°C 36.9°F2.7°C 96% Calm Calm 1.0 mph1.6 kmh 30.12 in1020.0 mb 0.07 in1.8 mm 0.00 in0.0 mm 0.20 in5.1 mm
08:00 PM 37.9°F3.3°C 36.9°F2.7°C 96% Calm Calm 2.0 mph3.2 kmh 30.12 in1020.0 mb 0.04 in1.0 mm 0.00 in0.0 mm 0.20 in5.1 mm
08:15 PM 38.0°F3.3°C 37.0°F2.8°C 96% Calm Calm -- 30.13 in1020.3 mb 0.04 in1.0 mm 0.00 in0.0 mm 0.20 in5.1 mm
08:30 PM 37.9°F3.3°C 36.9°F2.7°C 96% Calm Calm -- 30.10 in1019.3 mb 0.01 in0.3 mm 0.00 in0.0 mm 0.20 in5.1 mm
08:45 PM 38.0°F3.3°C 37.0°F2.8°C 96% Calm Calm 3.0 mph4.8 kmh 30.08 in1018.6 mb 0.02 in0.5 mm 0.04 in1.0 mm 0.21 in5.3 mm
09:00 PM 38.0°F3.3°C 37.0°F2.8°C 96% 3.0 mph SSE4.8 kmh SSE 5.1 mph8.2 kmh 30.07 in1018.3 mb 0.02 in0.5 mm 0.00 in0.0 mm 0.21 in5.3 mm
09:15 PM 38.0°F3.3°C 37.0°F2.8°C 96% 2.0 mph W3.2 kmh W 3.0 mph4.8 kmh 30.09 in1019.0 mb 0.02 in0.5 mm 0.00 in0.0 mm 0.21 in5.3 mm
09:30 PM 38.2°F3.4°C 37.4°F3.0°C 97% 1.0 mph WSW1.6 kmh WSW 2.0 mph3.2 kmh 30.10 in1019.3 mb 0.01 in0.3 mm 0.00 in0.0 mm 0.21 in5.3 mm
09:45 PM 38.4°F3.6°C 37.6°F3.1°C 97% Calm Calm -- 30.09 in1019.0 mb 0.01 in0.3 mm 0.00 in0.0 mm 0.21 in5.3 mm
10:00 PM 38.3°F3.5°C 37.5°F3.1°C 97% 1.0 mph W1.6 kmh W 1.0 mph1.6 kmh 30.10 in1019.3 mb 0.00 in0.0 mm 0.00 in0.0 mm 0.21 in5.3 mm
10:15 PM 38.3°F3.5°C 37.3°F2.9°C 96% Calm Calm 2.0 mph3.2 kmh 30.07 in1018.3 mb 0.00 in0.0 mm 0.00 in0.0 mm 0.21 in5.3 mm
10:30 PM 38.2°F3.4°C 37.4°F3.0°C 97% 2.0 mph SSW3.2 kmh SSW 4.0 mph6.4 kmh 30.09 in1019.0 mb 0.00 in0.0 mm 0.00 in0.0 mm 0.21 in5.3 mm
10:45 PM 38.2°F3.4°C 37.2°F2.9°C 96% 2.0 mph S3.2 kmh S 4.0 mph6.4 kmh 30.09 in1019.0 mb 0.00 in0.0 mm 0.00 in0.0 mm 0.21 in5.3 mm
11:00 PM 38.1°F3.4°C 37.1°F2.8°C 96% 2.0 mph W3.2 kmh W 3.0 mph4.8 kmh 30.09 in1019.0 mb 0.00 in0.0 mm 0.00 in0.0 mm 0.21 in5.3 mm
11:15 PM 37.8°F3.2°C 36.8°F2.7°C 96% 4.0 mph NW6.4 kmh NW 4.0 mph6.4 kmh 30.09 in1019.0 mb 0.00 in0.0 mm 0.00 in0.0 mm 0.21 in5.3 mm
11:30 PM 37.9°F3.3°C 36.9°F2.7°C 96% 2.0 mph WSW3.2 kmh WSW 2.0 mph3.2 kmh 30.08 in1018.6 mb 0.00 in0.0 mm 0.00 in0.0 mm 0.21 in5.3 mm
11:45 PM 37.7°F3.2°C 36.7°F2.6°C 96% 3.0 mph SW4.8 kmh SW 5.1 mph8.2 kmh 30.08 in1018.6 mb 0.00 in0.0 mm 0.00 in0.0 mm 0.21 in5.3 mm